sensor_id;sensor_type;location;lat;lon;timestamp;P1;durP1;ratioP1;P2;durP2;ratioP2
75012;SDS011;63567;49.956;20.130;2023-07-31T00:00:59;3.60;;;2.47;;
75012;SDS011;63567;49.956;20.130;2023-07-31T00:03:25;3.37;;;2.40;;
75012;SDS011;63567;49.956;20.130;2023-07-31T00:05:50;3.33;;;2.23;;
75012;SDS011;63567;49.956;20.130;2023-07-31T00:08:15;3.13;;;2.20;;
75012;SDS011;63567;49.956;20.130;2023-07-31T00:10:41;3.00;;;2.47;;
75012;SDS011;63567;49.956;20.130;2023-07-31T00:13:06;2.87;;;2.10;;
75012;SDS011;63567;49.956;20.130;2023-07-31T00:15:31;3.60;;;2.50;;
75012;SDS011;63567;49.956;20.130;2023-07-31T00:17:56;2.90;;;2.20;;
75012;SDS011;63567;49.956;20.130;2023-07-31T00:20:22;3.17;;;2.13;;
75012;SDS011;63567;49.956;20.130;2023-07-31T00:22:48;3.08;;;2.30;;
75012;SDS011;63567;49.956;20.130;2023-07-31T00:25:13;2.70;;;2.17;;
75012;SDS011;63567;49.956;20.130;2023-07-31T00:27:38;3.00;;;2.33;;
75012;SDS011;63567;49.956;20.130;2023-07-31T00:30:03;2.63;;;2.13;;
75012;SDS011;63567;49.956;20.130;2023-07-31T00:32:29;3.28;;;2.20;;
75012;SDS011;63567;49.956;20.130;2023-07-31T00:34:54;2.70;;;2.00;;
75012;SDS011;63567;49.956;20.130;2023-07-31T00:37:20;4.83;;;2.27;;
75012;SDS011;63567;49.956;20.130;2023-07-31T00:39:45;3.40;;;2.20;;
75012;SDS011;63567;49.956;20.130;2023-07-31T00:42:10;3.10;;;2.23;;
75012;SDS011;63567;49.956;20.130;2023-07-31T00:44:36;2.42;;;1.80;;
75012;SDS011;63567;49.956;20.130;2023-07-31T00:47:01;2.77;;;1.77;;
75012;SDS011;63567;49.956;20.130;2023-07-31T00:49:26;2.65;;;1.90;;
75012;SDS011;63567;49.956;20.130;2023-07-31T00:51:52;2.90;;;2.33;;
75012;SDS011;63567;49.956;20.130;2023-07-31T00:54:18;3.05;;;2.33;;
75012;SDS011;63567;49.956;20.130;2023-07-31T00:56:44;2.90;;;2.00;;
75012;SDS011;63567;49.956;20.130;2023-07-31T00:59:10;2.95;;;2.03;;
75012;SDS011;63567;49.956;20.130;2023-07-31T01:01:35;3.27;;;1.90;;
75012;SDS011;63567;49.956;20.130;2023-07-31T01:04:01;2.75;;;1.80;;
75012;SDS011;63567;49.956;20.130;2023-07-31T01:09:20;3.40;;;1.70;;
75012;SDS011;63567;49.956;20.130;2023-07-31T01:11:57;3.28;;;2.00;;
75012;SDS011;63567;49.956;20.130;2023-07-31T01:14:27;2.75;;;2.03;;
75012;SDS011;63567;49.956;20.130;2023-07-31T01:16:52;2.72;;;1.80;;
75012;SDS011;63567;49.956;20.130;2023-07-31T01:19:18;3.73;;;2.07;;
75012;SDS011;63567;49.956;20.130;2023-07-31T01:27:34;2.30;;;2.10;;
75012;SDS011;63567;49.956;20.130;2023-07-31T01:30:05;2.67;;;2.00;;
75012;SDS011;63567;49.956;20.130;2023-07-31T01:32:47;3.00;;;2.28;;
75012;SDS011;63567;49.956;20.130;2023-07-31T01:35:14;2.83;;;2.00;;
75012;SDS011;63567;49.956;20.130;2023-07-31T01:37:39;3.75;;;1.95;;
75012;SDS011;63567;49.956;20.130;2023-07-31T01:40:05;3.30;;;2.20;;
75012;SDS011;63567;49.956;20.130;2023-07-31T01:42:31;3.28;;;2.67;;
75012;SDS011;63567;49.956;20.130;2023-07-31T01:44:56;2.23;;;1.90;;
75012;SDS011;63567;49.956;20.130;2023-07-31T01:47:22;3.43;;;2.40;;
75012;SDS011;63567;49.956;20.130;2023-07-31T01:49:48;2.67;;;2.30;;
75012;SDS011;63567;49.956;20.130;2023-07-31T01:52:13;3.00;;;2.10;;
75012;SDS011;63567;49.956;20.130;2023-07-31T01:54:39;3.97;;;2.40;;
75012;SDS011;63567;49.956;20.130;2023-07-31T01:57:04;3.63;;;2.30;;
75012;SDS011;63567;49.956;20.130;2023-07-31T01:59:29;2.95;;;2.30;;
75012;SDS011;63567;49.956;20.130;2023-07-31T02:01:54;3.97;;;2.43;;
75012;SDS011;63567;49.956;20.130;2023-07-31T02:04:20;2.83;;;2.13;;
75012;SDS011;63567;49.956;20.130;2023-07-31T02:06:45;3.23;;;2.10;;
75012;SDS011;63567;49.956;20.130;2023-07-31T02:09:10;3.20;;;2.20;;
75012;SDS011;63567;49.956;20.130;2023-07-31T02:11:36;3.28;;;2.33;;
75012;SDS011;63567;49.956;20.130;2023-07-31T02:14:01;2.83;;;1.97;;
75012;SDS011;63567;49.956;20.130;2023-07-31T02:16:26;2.77;;;2.07;;
75012;SDS011;63567;49.956;20.130;2023-07-31T02:18:52;3.20;;;2.10;;
75012;SDS011;63567;49.956;20.130;2023-07-31T02:21:17;2.77;;;1.97;;
75012;SDS011;63567;49.956;20.130;2023-07-31T02:23:42;3.00;;;2.30;;
75012;SDS011;63567;49.956;20.130;2023-07-31T02:26:07;3.03;;;2.10;;
75012;SDS011;63567;49.956;20.130;2023-07-31T02:28:33;2.30;;;2.07;;
75012;SDS011;63567;49.956;20.130;2023-07-31T02:30:58;2.97;;;2.13;;
75012;SDS011;63567;49.956;20.130;2023-07-31T02:33:23;2.90;;;2.50;;
75012;SDS011;63567;49.956;20.130;2023-07-31T02:35:49;3.67;;;1.90;;
75012;SDS011;63567;49.956;20.130;2023-07-31T02:38:14;2.97;;;2.67;;
75012;SDS011;63567;49.956;20.130;2023-07-31T02:40:39;3.90;;;3.17;;
75012;SDS011;63567;49.956;20.130;2023-07-31T02:43:06;3.38;;;2.25;;
75012;SDS011;63567;49.956;20.130;2023-07-31T02:45:31;3.55;;;2.45;;
75012;SDS011;63567;49.956;20.130;2023-07-31T02:47:56;3.20;;;2.60;;
75012;SDS011;63567;49.956;20.130;2023-07-31T02:50:22;2.80;;;2.07;;
75012;SDS011;63567;49.956;20.130;2023-07-31T02:52:47;3.37;;;2.50;;
75012;SDS011;63567;49.956;20.130;2023-07-31T02:55:12;4.07;;;2.50;;
75012;SDS011;63567;49.956;20.130;2023-07-31T02:57:38;4.63;;;2.53;;
75012;SDS011;63567;49.956;20.130;2023-07-31T03:00:03;2.77;;;2.27;;
75012;SDS011;63567;49.956;20.130;2023-07-31T03:02:31;3.85;;;2.63;;
75012;SDS011;63567;49.956;20.130;2023-07-31T03:04:56;3.40;;;2.22;;
75012;SDS011;63567;49.956;20.130;2023-07-31T03:07:21;3.27;;;2.20;;
75012;SDS011;63567;49.956;20.130;2023-07-31T03:09:47;3.70;;;2.30;;
75012;SDS011;63567;49.956;20.130;2023-07-31T03:12:12;2.77;;;2.30;;
75012;SDS011;63567;49.956;20.130;2023-07-31T03:14:37;4.00;;;2.87;;
75012;SDS011;63567;49.956;20.130;2023-07-31T03:17:03;4.00;;;2.50;;
75012;SDS011;63567;49.956;20.130;2023-07-31T03:19:30;4.57;;;2.92;;
75012;SDS011;63567;49.956;20.130;2023-07-31T03:21:56;3.08;;;2.65;;
75012;SDS011;63567;49.956;20.130;2023-07-31T03:24:21;4.33;;;2.80;;
75012;SDS011;63567;49.956;20.130;2023-07-31T03:26:46;3.70;;;2.40;;
75012;SDS011;63567;49.956;20.130;2023-07-31T03:29:11;4.50;;;2.97;;
75012;SDS011;63567;49.956;20.130;2023-07-31T03:31:37;3.63;;;2.90;;
75012;SDS011;63567;49.956;20.130;2023-07-31T03:34:02;4.17;;;2.97;;
75012;SDS011;63567;49.956;20.130;2023-07-31T03:36:27;3.73;;;2.57;;
75012;SDS011;63567;49.956;20.130;2023-07-31T03:38:53;3.27;;;2.53;;
75012;SDS011;63567;49.956;20.130;2023-07-31T03:41:18;4.03;;;2.90;;
75012;SDS011;63567;49.956;20.130;2023-07-31T03:43:43;3.97;;;2.70;;
75012;SDS011;63567;49.956;20.130;2023-07-31T03:46:10;4.40;;;3.00;;
75012;SDS011;63567;49.956;20.130;2023-07-31T03:48:35;5.27;;;2.93;;
75012;SDS011;63567;49.956;20.130;2023-07-31T03:51:00;3.53;;;2.77;;
75012;SDS011;63567;49.956;20.130;2023-07-31T03:53:25;3.30;;;2.73;;
75012;SDS011;63567;49.956;20.130;2023-07-31T03:55:51;3.87;;;3.03;;
75012;SDS011;63567;49.956;20.130;2023-07-31T03:58:16;4.17;;;3.17;;
75012;SDS011;63567;49.956;20.130;2023-07-31T04:00:41;3.87;;;2.73;;
75012;SDS011;63567;49.956;20.130;2023-07-31T04:03:06;3.83;;;2.67;;
75012;SDS011;63567;49.956;20.130;2023-07-31T04:05:32;2.73;;;2.27;;
75012;SDS011;63567;49.956;20.130;2023-07-31T04:07:57;3.75;;;2.42;;
75012;SDS011;63567;49.956;20.130;2023-07-31T04:10:23;3.40;;;2.77;;
75012;SDS011;63567;49.956;20.130;2023-07-31T04:12:48;4.77;;;3.00;;
75012;SDS011;63567;49.956;20.130;2023-07-31T04:15:13;3.20;;;2.50;;
75012;SDS011;63567;49.956;20.130;2023-07-31T04:17:39;3.87;;;2.83;;
75012;SDS011;63567;49.956;20.130;2023-07-31T04:20:04;4.07;;;2.93;;
75012;SDS011;63567;49.956;20.130;2023-07-31T04:22:30;3.47;;;2.60;;
75012;SDS011;63567;49.956;20.130;2023-07-31T04:24:55;3.70;;;2.40;;
75012;SDS011;63567;49.956;20.130;2023-07-31T04:27:20;3.20;;;2.40;;
75012;SDS011;63567;49.956;20.130;2023-07-31T04:29:46;4.50;;;2.37;;
75012;SDS011;63567;49.956;20.130;2023-07-31T04:32:12;4.03;;;2.45;;
75012;SDS011;63567;49.956;20.130;2023-07-31T04:34:37;3.77;;;2.57;;
75012;SDS011;63567;49.956;20.130;2023-07-31T04:37:03;4.03;;;2.57;;
75012;SDS011;63567;49.956;20.130;2023-07-31T04:39:28;3.40;;;2.77;;
75012;SDS011;63567;49.956;20.130;2023-07-31T04:41:53;3.70;;;3.00;;
75012;SDS011;63567;49.956;20.130;2023-07-31T04:44:19;3.60;;;2.70;;
75012;SDS011;63567;49.956;20.130;2023-07-31T04:46:44;4.37;;;2.90;;
75012;SDS011;63567;49.956;20.130;2023-07-31T04:49:10;3.40;;;2.50;;
75012;SDS011;63567;49.956;20.130;2023-07-31T04:51:35;4.10;;;3.00;;
75012;SDS011;63567;49.956;20.130;2023-07-31T04:54:00;3.87;;;2.80;;
75012;SDS011;63567;49.956;20.130;2023-07-31T04:56:26;3.37;;;2.80;;
75012;SDS011;63567;49.956;20.130;2023-07-31T04:58:51;3.10;;;2.80;;
75012;SDS011;63567;49.956;20.130;2023-07-31T05:01:16;3.47;;;2.90;;
75012;SDS011;63567;49.956;20.130;2023-07-31T05:03:41;4.10;;;2.60;;
75012;SDS011;63567;49.956;20.130;2023-07-31T05:06:07;3.53;;;2.50;;
75012;SDS011;63567;49.956;20.130;2023-07-31T05:08:32;3.73;;;2.80;;
75012;SDS011;63567;49.956;20.130;2023-07-31T05:10:58;4.47;;;3.35;;
75012;SDS011;63567;49.956;20.130;2023-07-31T05:13:23;4.97;;;3.60;;
75012;SDS011;63567;49.956;20.130;2023-07-31T05:15:49;4.50;;;3.33;;
75012;SDS011;63567;49.956;20.130;2023-07-31T05:18:14;5.00;;;3.40;;
75012;SDS011;63567;49.956;20.130;2023-07-31T05:20:40;3.70;;;3.33;;
75012;SDS011;63567;49.956;20.130;2023-07-31T05:23:05;4.37;;;3.77;;
75012;SDS011;63567;49.956;20.130;2023-07-31T05:25:30;3.90;;;3.50;;
75012;SDS011;63567;49.956;20.130;2023-07-31T05:27:55;4.87;;;3.50;;
75012;SDS011;63567;49.956;20.130;2023-07-31T05:30:21;6.73;;;4.07;;
75012;SDS011;63567;49.956;20.130;2023-07-31T05:32:46;4.88;;;4.18;;
75012;SDS011;63567;49.956;20.130;2023-07-31T05:35:11;4.30;;;3.30;;
75012;SDS011;63567;49.956;20.130;2023-07-31T05:37:37;4.23;;;3.57;;
75012;SDS011;63567;49.956;20.130;2023-07-31T05:40:02;4.53;;;4.03;;
75012;SDS011;63567;49.956;20.130;2023-07-31T05:42:27;5.35;;;4.25;;
75012;SDS011;63567;49.956;20.130;2023-07-31T05:44:53;4.57;;;3.93;;
75012;SDS011;63567;49.956;20.130;2023-07-31T05:47:18;5.03;;;4.43;;
75012;SDS011;63567;49.956;20.130;2023-07-31T05:49:44;5.60;;;4.67;;
75012;SDS011;63567;49.956;20.130;2023-07-31T05:52:09;5.63;;;4.60;;
75012;SDS011;63567;49.956;20.130;2023-07-31T05:54:34;5.05;;;4.43;;
75012;SDS011;63567;49.956;20.130;2023-07-31T05:57:00;4.93;;;4.40;;
75012;SDS011;63567;49.956;20.130;2023-07-31T05:59:25;6.10;;;5.00;;
75012;SDS011;63567;49.956;20.130;2023-07-31T06:01:50;4.80;;;4.40;;
75012;SDS011;63567;49.956;20.130;2023-07-31T06:04:15;5.73;;;5.07;;
75012;SDS011;63567;49.956;20.130;2023-07-31T06:06:41;6.70;;;5.43;;
75012;SDS011;63567;49.956;20.130;2023-07-31T06:09:06;7.83;;;6.00;;
75012;SDS011;63567;49.956;20.130;2023-07-31T06:11:32;7.00;;;5.65;;
75012;SDS011;63567;49.956;20.130;2023-07-31T06:13:57;7.40;;;5.95;;
75012;SDS011;63567;49.956;20.130;2023-07-31T06:16:22;5.57;;;4.83;;
75012;SDS011;63567;49.956;20.130;2023-07-31T06:18:48;6.67;;;5.00;;
75012;SDS011;63567;49.956;20.130;2023-07-31T06:21:13;6.20;;;5.60;;
75012;SDS011;63567;49.956;20.130;2023-07-31T06:23:38;6.05;;;5.47;;
75012;SDS011;63567;49.956;20.130;2023-07-31T06:26:04;6.07;;;5.30;;
75012;SDS011;63567;49.956;20.130;2023-07-31T06:28:30;7.95;;;6.35;;
75012;SDS011;63567;49.956;20.130;2023-07-31T06:30:56;6.70;;;6.00;;
75012;SDS011;63567;49.956;20.130;2023-07-31T06:33:24;6.13;;;5.32;;
75012;SDS011;63567;49.956;20.130;2023-07-31T06:35:50;6.53;;;5.80;;
75012;SDS011;63567;49.956;20.130;2023-07-31T06:38:15;5.35;;;4.85;;
75012;SDS011;63567;49.956;20.130;2023-07-31T06:40:41;5.97;;;5.38;;
75012;SDS011;63567;49.956;20.130;2023-07-31T06:43:06;6.40;;;5.33;;
75012;SDS011;63567;49.956;20.130;2023-07-31T06:45:36;6.32;;;5.78;;
75012;SDS011;63567;49.956;20.130;2023-07-31T06:48:01;9.18;;;8.40;;
75012;SDS011;63567;49.956;20.130;2023-07-31T06:50:28;8.50;;;7.60;;
75012;SDS011;63567;49.956;20.130;2023-07-31T06:52:53;8.18;;;7.15;;
75012;SDS011;63567;49.956;20.130;2023-07-31T06:55:19;6.73;;;6.03;;
75012;SDS011;63567;49.956;20.130;2023-07-31T06:57:46;6.88;;;6.18;;
75012;SDS011;63567;49.956;20.130;2023-07-31T07:00:16;7.22;;;6.53;;
75012;SDS011;63567;49.956;20.130;2023-07-31T07:02:42;6.80;;;6.10;;
75012;SDS011;63567;49.956;20.130;2023-07-31T07:05:07;7.27;;;6.50;;
75012;SDS011;63567;49.956;20.130;2023-07-31T07:07:33;7.15;;;6.45;;
75012;SDS011;63567;49.956;20.130;2023-07-31T07:09:59;7.57;;;6.30;;
75012;SDS011;63567;49.956;20.130;2023-07-31T07:12:25;7.57;;;6.77;;
75012;SDS011;63567;49.956;20.130;2023-07-31T07:14:51;7.07;;;6.38;;
75012;SDS011;63567;49.956;20.130;2023-07-31T07:17:17;7.40;;;6.57;;
75012;SDS011;63567;49.956;20.130;2023-07-31T07:19:43;6.47;;;5.88;;
75012;SDS011;63567;49.956;20.130;2023-07-31T07:22:09;6.13;;;5.50;;
75012;SDS011;63567;49.956;20.130;2023-07-31T07:24:35;7.32;;;6.72;;
75012;SDS011;63567;49.956;20.130;2023-07-31T07:27:00;6.10;;;5.50;;
75012;SDS011;63567;49.956;20.130;2023-07-31T07:29:25;7.33;;;6.63;;
75012;SDS011;63567;49.956;20.130;2023-07-31T07:31:51;6.13;;;5.53;;
75012;SDS011;63567;49.956;20.130;2023-07-31T07:34:16;6.33;;;5.27;;
75012;SDS011;63567;49.956;20.130;2023-07-31T07:36:41;6.23;;;5.30;;
75012;SDS011;63567;49.956;20.130;2023-07-31T07:39:06;5.53;;;4.93;;
75012;SDS011;63567;49.956;20.130;2023-07-31T07:41:33;5.70;;;4.85;;
75012;SDS011;63567;49.956;20.130;2023-07-31T07:43:58;5.33;;;4.57;;
75012;SDS011;63567;49.956;20.130;2023-07-31T07:46:23;5.73;;;4.83;;
75012;SDS011;63567;49.956;20.130;2023-07-31T07:48:48;5.80;;;5.20;;
75012;SDS011;63567;49.956;20.130;2023-07-31T07:51:14;7.27;;;5.10;;
75012;SDS011;63567;49.956;20.130;2023-07-31T07:53:39;5.87;;;5.17;;
75012;SDS011;63567;49.956;20.130;2023-07-31T07:56:04;5.57;;;4.63;;
75012;SDS011;63567;49.956;20.130;2023-07-31T07:58:30;4.90;;;4.20;;
75012;SDS011;63567;49.956;20.130;2023-07-31T08:00:55;5.33;;;4.83;;
75012;SDS011;63567;49.956;20.130;2023-07-31T08:03:20;5.13;;;4.63;;
75012;SDS011;63567;49.956;20.130;2023-07-31T08:05:45;6.00;;;4.73;;
75012;SDS011;63567;49.956;20.130;2023-07-31T08:08:17;4.87;;;4.17;;
75012;SDS011;63567;49.956;20.130;2023-07-31T08:10:43;5.05;;;4.32;;
75012;SDS011;63567;49.956;20.130;2023-07-31T08:13:09;4.65;;;3.83;;
75012;SDS011;63567;49.956;20.130;2023-07-31T08:15:36;5.00;;;3.97;;
75012;SDS011;63567;49.956;20.130;2023-07-31T08:18:01;5.33;;;3.70;;
75012;SDS011;63567;49.956;20.130;2023-07-31T08:20:26;4.63;;;3.70;;
75012;SDS011;63567;49.956;20.130;2023-07-31T08:22:52;6.45;;;4.30;;
75012;SDS011;63567;49.956;20.130;2023-07-31T08:25:18;4.25;;;3.67;;
75012;SDS011;63567;49.956;20.130;2023-07-31T08:27:43;5.15;;;3.92;;
75012;SDS011;63567;49.956;20.130;2023-07-31T08:30:09;4.68;;;3.40;;
75012;SDS011;63567;49.956;20.130;2023-07-31T08:32:35;4.45;;;3.72;;
75012;SDS011;63567;49.956;20.130;2023-07-31T08:35:00;3.87;;;3.50;;
75012;SDS011;63567;49.956;20.130;2023-07-31T08:37:25;4.57;;;3.80;;
75012;SDS011;63567;49.956;20.130;2023-07-31T08:39:51;4.53;;;3.70;;
75012;SDS011;63567;49.956;20.130;2023-07-31T08:42:16;4.95;;;3.65;;
75012;SDS011;63567;49.956;20.130;2023-07-31T08:44:41;5.57;;;3.70;;
75012;SDS011;63567;49.956;20.130;2023-07-31T08:47:08;3.75;;;3.22;;
75012;SDS011;63567;49.956;20.130;2023-07-31T08:49:35;4.05;;;3.30;;
75012;SDS011;63567;49.956;20.130;2023-07-31T08:52:03;5.25;;;3.10;;
75012;SDS011;63567;49.956;20.130;2023-07-31T08:54:29;3.78;;;3.47;;
75012;SDS011;63567;49.956;20.130;2023-07-31T08:56:56;3.95;;;3.10;;
75012;SDS011;63567;49.956;20.130;2023-07-31T08:59:22;4.35;;;3.25;;
75012;SDS011;63567;49.956;20.130;2023-07-31T09:01:50;3.90;;;3.42;;
75012;SDS011;63567;49.956;20.130;2023-07-31T09:04:20;3.42;;;3.00;;
75012;SDS011;63567;49.956;20.130;2023-07-31T09:06:47;5.43;;;3.35;;
75012;SDS011;63567;49.956;20.130;2023-07-31T09:09:13;4.22;;;2.78;;
75012;SDS011;63567;49.956;20.130;2023-07-31T09:11:38;4.15;;;2.80;;
75012;SDS011;63567;49.956;20.130;2023-07-31T09:14:04;5.57;;;2.85;;
75012;SDS011;63567;49.956;20.130;2023-07-31T09:16:33;4.85;;;2.70;;
75012;SDS011;63567;49.956;20.130;2023-07-31T09:18:59;4.38;;;2.97;;
75012;SDS011;63567;49.956;20.130;2023-07-31T09:21:27;5.35;;;2.88;;
75012;SDS011;63567;49.956;20.130;2023-07-31T09:23:52;4.97;;;3.00;;
75012;SDS011;63567;49.956;20.130;2023-07-31T09:29:01;3.60;;;3.00;;
75012;SDS011;63567;49.956;20.130;2023-07-31T09:34:07;3.72;;;2.63;;
75012;SDS011;63567;49.956;20.130;2023-07-31T09:36:39;5.03;;;2.97;;
75012;SDS011;63567;49.956;20.130;2023-07-31T09:39:05;3.38;;;2.63;;
75012;SDS011;63567;49.956;20.130;2023-07-31T09:41:36;4.22;;;3.10;;
75012;SDS011;63567;49.956;20.130;2023-07-31T09:44:02;4.80;;;3.03;;
75012;SDS011;63567;49.956;20.130;2023-07-31T09:46:27;4.70;;;3.23;;
75012;SDS011;63567;49.956;20.130;2023-07-31T09:48:52;3.57;;;2.83;;
75012;SDS011;63567;49.956;20.130;2023-07-31T09:51:24;4.43;;;2.60;;
75012;SDS011;63567;49.956;20.130;2023-07-31T09:53:51;4.65;;;3.22;;
75012;SDS011;63567;49.956;20.130;2023-07-31T09:56:16;4.27;;;3.47;;
75012;SDS011;63567;49.956;20.130;2023-07-31T09:58:43;3.47;;;2.40;;
75012;SDS011;63567;49.956;20.130;2023-07-31T10:01:08;3.28;;;2.88;;
75012;SDS011;63567;49.956;20.130;2023-07-31T10:03:34;3.42;;;3.03;;
75012;SDS011;63567;49.956;20.130;2023-07-31T10:05:59;4.15;;;2.85;;
75012;SDS011;63567;49.956;20.130;2023-07-31T10:08:28;3.80;;;2.83;;
75012;SDS011;63567;49.956;20.130;2023-07-31T10:10:58;4.18;;;3.20;;
75012;SDS011;63567;49.956;20.130;2023-07-31T10:13:25;2.75;;;2.42;;
75012;SDS011;63567;49.956;20.130;2023-07-31T10:15:53;3.25;;;2.58;;
75012;SDS011;63567;49.956;20.130;2023-07-31T10:18:19;3.60;;;3.13;;
75012;SDS011;63567;49.956;20.130;2023-07-31T10:20:45;4.72;;;3.30;;
75012;SDS011;63567;49.956;20.130;2023-07-31T10:23:11;4.65;;;3.70;;
75012;SDS011;63567;49.956;20.130;2023-07-31T10:25:38;5.07;;;4.57;;
75012;SDS011;63567;49.956;20.130;2023-07-31T10:28:04;5.70;;;3.33;;
75012;SDS011;63567;49.956;20.130;2023-07-31T10:30:31;5.13;;;2.90;;
75012;SDS011;63567;49.956;20.130;2023-07-31T10:32:59;4.18;;;3.78;;
75012;SDS011;63567;49.956;20.130;2023-07-31T10:35:24;4.75;;;3.47;;
75012;SDS011;63567;49.956;20.130;2023-07-31T10:37:50;4.17;;;2.90;;
75012;SDS011;63567;49.956;20.130;2023-07-31T10:40:18;3.85;;;2.92;;
75012;SDS011;63567;49.956;20.130;2023-07-31T10:45:36;3.60;;;3.03;;
75012;SDS011;63567;49.956;20.130;2023-07-31T10:48:04;3.95;;;3.55;;
75012;SDS011;63567;49.956;20.130;2023-07-31T10:50:46;3.28;;;3.00;;
75012;SDS011;63567;49.956;20.130;2023-07-31T10:56:04;3.35;;;3.05;;
75012;SDS011;63567;49.956;20.130;2023-07-31T10:58:34;3.15;;;2.92;;
75012;SDS011;63567;49.956;20.130;2023-07-31T11:01:02;3.40;;;3.10;;
75012;SDS011;63567;49.956;20.130;2023-07-31T11:06:09;3.55;;;3.25;;
75012;SDS011;63567;49.956;20.130;2023-07-31T11:08:47;3.70;;;3.40;;
75012;SDS011;63567;49.956;20.130;2023-07-31T11:11:15;3.38;;;3.03;;
75012;SDS011;63567;49.956;20.130;2023-07-31T11:13:49;4.00;;;3.65;;
75012;SDS011;63567;49.956;20.130;2023-07-31T11:16:20;4.03;;;3.53;;
75012;SDS011;63567;49.956;20.130;2023-07-31T11:18:47;4.35;;;4.05;;
75012;SDS011;63567;49.956;20.130;2023-07-31T11:21:14;3.72;;;3.42;;
75012;SDS011;63567;49.956;20.130;2023-07-31T11:23:41;4.85;;;4.10;;
75012;SDS011;63567;49.956;20.130;2023-07-31T11:28:35;4.03;;;3.67;;
75012;SDS011;63567;49.956;20.130;2023-07-31T11:31:01;3.50;;;3.20;;
75012;SDS011;63567;49.956;20.130;2023-07-31T11:33:27;4.22;;;3.92;;
75012;SDS011;63567;49.956;20.130;2023-07-31T11:35:53;3.85;;;3.60;;
75012;SDS011;63567;49.956;20.130;2023-07-31T11:38:22;4.35;;;4.05;;
75012;SDS011;63567;49.956;20.130;2023-07-31T11:40:49;5.30;;;5.00;;
75012;SDS011;63567;49.956;20.130;2023-07-31T11:43:14;5.78;;;5.47;;
75012;SDS011;63567;49.956;20.130;2023-07-31T11:45:44;4.53;;;4.22;;
75012;SDS011;63567;49.956;20.130;2023-07-31T11:48:18;4.78;;;4.35;;
75012;SDS011;63567;49.956;20.130;2023-07-31T11:50:51;5.38;;;4.97;;
75012;SDS011;63567;49.956;20.130;2023-07-31T11:53:20;4.60;;;4.30;;
75012;SDS011;63567;49.956;20.130;2023-07-31T11:55:49;4.70;;;4.40;;
75012;SDS011;63567;49.956;20.130;2023-07-31T11:58:15;3.70;;;3.40;;
75012;SDS011;63567;49.956;20.130;2023-07-31T12:00:41;4.63;;;4.32;;
75012;SDS011;63567;49.956;20.130;2023-07-31T12:03:07;4.20;;;3.90;;
75012;SDS011;63567;49.956;20.130;2023-07-31T12:05:32;5.22;;;4.82;;
75012;SDS011;63567;49.956;20.130;2023-07-31T12:07:58;5.70;;;5.30;;
75012;SDS011;63567;49.956;20.130;2023-07-31T12:10:29;4.73;;;4.23;;
75012;SDS011;63567;49.956;20.130;2023-07-31T12:13:00;5.45;;;5.13;;
75012;SDS011;63567;49.956;20.130;2023-07-31T12:18:22;4.90;;;3.78;;
75012;SDS011;63567;49.956;20.130;2023-07-31T12:20:59;4.53;;;4.22;;
75012;SDS011;63567;49.956;20.130;2023-07-31T12:23:26;5.20;;;4.82;;
75012;SDS011;63567;49.956;20.130;2023-07-31T12:26:03;4.45;;;4.15;;
75012;SDS011;63567;49.956;20.130;2023-07-31T12:28:43;6.60;;;6.00;;
75012;SDS011;63567;49.956;20.130;2023-07-31T12:31:10;5.93;;;5.43;;
75012;SDS011;63567;49.956;20.130;2023-07-31T12:33:38;5.97;;;5.57;;
75012;SDS011;63567;49.956;20.130;2023-07-31T12:36:06;6.07;;;5.68;;
75012;SDS011;63567;49.956;20.130;2023-07-31T12:38:39;6.25;;;5.65;;
75012;SDS011;63567;49.956;20.130;2023-07-31T12:41:05;6.35;;;5.95;;
75012;SDS011;63567;49.956;20.130;2023-07-31T12:43:37;7.10;;;6.72;;
75012;SDS011;63567;49.956;20.130;2023-07-31T12:46:03;5.55;;;5.25;;
75012;SDS011;63567;49.956;20.130;2023-07-31T12:48:29;5.55;;;5.15;;
75012;SDS011;63567;49.956;20.130;2023-07-31T12:50:55;5.15;;;4.75;;
75012;SDS011;63567;49.956;20.130;2023-07-31T12:53:20;6.70;;;6.30;;
75012;SDS011;63567;49.956;20.130;2023-07-31T12:55:46;6.17;;;5.87;;
75012;SDS011;63567;49.956;20.130;2023-07-31T12:58:11;7.15;;;6.65;;
75012;SDS011;63567;49.956;20.130;2023-07-31T13:00:36;6.20;;;5.80;;
75012;SDS011;63567;49.956;20.130;2023-07-31T13:03:02;7.28;;;6.82;;
75012;SDS011;63567;49.956;20.130;2023-07-31T13:05:28;5.40;;;5.10;;
75012;SDS011;63567;49.956;20.130;2023-07-31T13:07:53;6.95;;;6.55;;
75012;SDS011;63567;49.956;20.130;2023-07-31T13:10:19;7.00;;;6.55;;
75012;SDS011;63567;49.956;20.130;2023-07-31T13:12:44;6.70;;;6.30;;
75012;SDS011;63567;49.956;20.130;2023-07-31T13:15:10;8.40;;;8.10;;
75012;SDS011;63567;49.956;20.130;2023-07-31T13:17:35;6.95;;;6.65;;
75012;SDS011;63567;49.956;20.130;2023-07-31T13:20:01;5.95;;;5.65;;
75012;SDS011;63567;49.956;20.130;2023-07-31T13:22:28;7.20;;;6.78;;
75012;SDS011;63567;49.956;20.130;2023-07-31T13:24:54;8.32;;;7.93;;
75012;SDS011;63567;49.956;20.130;2023-07-31T13:27:19;7.20;;;6.80;;
75012;SDS011;63567;49.956;20.130;2023-07-31T13:29:46;8.13;;;7.72;;
75012;SDS011;63567;49.956;20.130;2023-07-31T13:32:12;7.28;;;6.82;;
75012;SDS011;63567;49.956;20.130;2023-07-31T13:34:37;8.23;;;7.83;;
75012;SDS011;63567;49.956;20.130;2023-07-31T13:37:03;5.97;;;5.57;;
75012;SDS011;63567;49.956;20.130;2023-07-31T13:39:28;7.75;;;7.35;;
75012;SDS011;63567;49.956;20.130;2023-07-31T13:41:54;4.83;;;4.53;;
75012;SDS011;63567;49.956;20.130;2023-07-31T13:44:19;7.03;;;6.68;;
75012;SDS011;63567;49.956;20.130;2023-07-31T13:46:45;6.57;;;6.17;;
75012;SDS011;63567;49.956;20.130;2023-07-31T13:49:10;6.33;;;6.03;;
75012;SDS011;63567;49.956;20.130;2023-07-31T13:51:35;8.40;;;8.00;;
75012;SDS011;63567;49.956;20.130;2023-07-31T13:54:01;7.50;;;6.93;;
75012;SDS011;63567;49.956;20.130;2023-07-31T13:56:26;6.22;;;5.93;;
75012;SDS011;63567;49.956;20.130;2023-07-31T13:58:52;10.83;;;10.43;;
75012;SDS011;63567;49.956;20.130;2023-07-31T14:01:17;9.43;;;9.03;;
75012;SDS011;63567;49.956;20.130;2023-07-31T14:03:42;12.03;;;11.43;;
75012;SDS011;63567;49.956;20.130;2023-07-31T14:06:07;9.37;;;8.97;;
75012;SDS011;63567;49.956;20.130;2023-07-31T14:08:33;12.03;;;11.43;;
75012;SDS011;63567;49.956;20.130;2023-07-31T14:10:58;11.20;;;10.70;;
75012;SDS011;63567;49.956;20.130;2023-07-31T14:13:23;8.03;;;7.70;;
75012;SDS011;63567;49.956;20.130;2023-07-31T14:15:48;8.03;;;7.63;;
75012;SDS011;63567;49.956;20.130;2023-07-31T14:18:14;9.07;;;8.60;;
75012;SDS011;63567;49.956;20.130;2023-07-31T14:20:39;9.47;;;8.97;;
75012;SDS011;63567;49.956;20.130;2023-07-31T14:23:04;9.97;;;9.57;;
75012;SDS011;63567;49.956;20.130;2023-07-31T14:25:30;11.63;;;11.23;;
75012;SDS011;63567;49.956;20.130;2023-07-31T14:27:55;9.70;;;9.20;;
75012;SDS011;63567;49.956;20.130;2023-07-31T14:30:20;11.53;;;11.03;;
75012;SDS011;63567;49.956;20.130;2023-07-31T14:32:46;14.53;;;14.03;;
75012;SDS011;63567;49.956;20.130;2023-07-31T14:35:11;10.13;;;9.70;;
75012;SDS011;63567;49.956;20.130;2023-07-31T14:37:40;18.17;;;17.58;;
75012;SDS011;63567;49.956;20.130;2023-07-31T14:40:07;10.07;;;9.60;;
75012;SDS011;63567;49.956;20.130;2023-07-31T14:42:34;9.40;;;8.93;;
75012;SDS011;63567;49.956;20.130;2023-07-31T14:44:59;11.30;;;10.80;;
75012;SDS011;63567;49.956;20.130;2023-07-31T14:47:24;13.20;;;12.70;;
75012;SDS011;63567;49.956;20.130;2023-07-31T14:49:50;12.83;;;12.33;;
75012;SDS011;63567;49.956;20.130;2023-07-31T14:52:15;13.07;;;12.53;;
75012;SDS011;63567;49.956;20.130;2023-07-31T14:54:40;13.10;;;12.50;;